»·PEaware :: AAL418 KASE-KDEN

AAL418 :: KASE-KDEN

FLIGHT INFORMATION

Flight Status: Arrived
Operator:
American Airlines
More flights by this operator :: More flights under this callsign
Pilot: Ryan L. (9775)
Aircraft: AIRBUS A320
(A320)
More flights by this aircraft type
Origin: KASE Aspen-Pitkin Co/Sardy
United States
Destination: KDEN Denver Intl
United States
More flights between these airports :: More routes between these airports
Route: +LINDZ8 DBL JNETT CREDE3
File this flight plan on PilotEdge
Remarks:
Altitude:
(Current/Filed)
31,000ft
Speed:
(Current/Filed)
450kts
Departed: 11-May-18 08:39 PM
Arrived: 11-May-18 09:10 PM
Distance/Time
Traveled:
108nm/0:31
Distance/Time
To Go:
Arrived

Flight Plot

Page will automatically refresh every two minutes.


Map Options




Map Legend


Flown Route
Filed Route
Departure Airport
Arrival Airport
Navaid (VOR, NDB)
Fix

Horizontal Profiles

Position Reports

Time Latitude Longitude Heading Altitude Ground
Speed
11-May-18 20:11 39.218551 -106.864165 248 7827ft 0kts
11-May-18 20:12 39.218551 -106.864165 248 7827ft 0kts
11-May-18 20:13 39.218551 -106.864165 248 7827ft 0kts
11-May-18 20:14 39.218551 -106.864165 248 7827ft 0kts
11-May-18 20:15 39.218551 -106.864165 248 7827ft 0kts
11-May-18 20:16 39.218551 -106.864165 248 7827ft 0kts
11-May-18 20:17 39.218551 -106.864165 248 7827ft 0kts
11-May-18 20:18 39.218551 -106.864165 248 7827ft 0kts
11-May-18 20:19 39.218551 -106.864165 248 7827ft 0kts
11-May-18 20:20 39.218551 -106.864165 248 7827ft 0kts
11-May-18 20:21 39.218551 -106.864165 248 7827ft 0kts
11-May-18 20:22 39.218551 -106.864165 248 7827ft 0kts
11-May-18 20:23 39.218551 -106.864165 248 7827ft 0kts
11-May-18 20:24 39.218551 -106.864165 248 7827ft 0kts
11-May-18 20:25 39.218551 -106.864165 248 7827ft 0kts
11-May-18 20:26 39.218551 -106.864165 248 7827ft 0kts
11-May-18 20:27 39.218551 -106.864165 248 7827ft 0kts
11-May-18 20:28 39.218551 -106.864165 248 7827ft 0kts
11-May-18 20:29 39.218551 -106.864165 248 7827ft 0kts
11-May-18 20:30 39.218551 -106.864165 248 7827ft 0kts
11-May-18 20:31 39.218551 -106.864165 248 7827ft 0kts
11-May-18 20:32 39.218551 -106.864165 248 7827ft 0kts
11-May-18 20:33 39.218269 -106.864991 229 7827ft 5kts
11-May-18 20:34 39.215894 -106.864205 158 7827ft 11kts
11-May-18 20:35 39.212603 -106.862664 193 7827ft 6kts
11-May-18 20:36 39.212526 -106.862717 215 7827ft 0kts
11-May-18 20:37 39.212518 -106.862725 216 7827ft 0kts
11-May-18 20:38 39.212477 -106.863758 336 7827ft 0kts
11-May-18 20:39 39.242720 -106.876158 348 8608ft 186kts
11-May-18 20:40 39.295006 -106.902627 294 10672ft 222kts
11-May-18 20:41 39.315134 -106.984053 285 12852ft 258kts
11-May-18 20:42 39.336083 -107.069229 280 15285ft 273kts
11-May-18 20:43 39.396240 -107.124688 4 17805ft 328kts
11-May-18 20:44 39.450008 -107.038040 97 19779ft 338kts
11-May-18 20:45 39.440255 -106.908251 101 19984ft 400kts
11-May-18 20:46 39.411704 -106.762472 108 20766ft 436kts
11-May-18 20:47 39.379759 -106.609741 108 22213ft 448kts
11-May-18 20:48 39.345085 -106.454982 114 23583ft 454kts
11-May-18 20:49 39.301866 -106.309630 115 24775ft 463kts
11-May-18 20:50 39.256539 -106.155498 110 25104ft 467kts
11-May-18 20:51 39.261743 -105.991620 81 24045ft 450kts
11-May-18 20:52 39.284761 -105.862888 80 22502ft 439kts
11-May-18 20:53 39.307120 -105.711983 81 20654ft 424kts
11-May-18 20:54 39.353530 -105.576821 60 18852ft 412kts
11-May-18 20:55 39.396946 -105.449218 88 17727ft 359kts
11-May-18 20:56 39.401873 -105.331681 90 16518ft 318kts
11-May-18 20:57 39.406896 -105.217457 89 15144ft 316kts
11-May-18 20:58 39.411888 -105.106389 89 13800ft 308kts
11-May-18 20:59 39.416560 -105.001490 92 13220ft 275kts
11-May-18 21:00 39.422605 -104.903515 91 12580ft 267kts
11-May-18 21:01 39.430767 -104.811376 91 11581ft 254kts
11-May-18 21:02 39.446918 -104.724736 75 11033ft 251kts
11-May-18 21:03 39.504665 -104.673807 19 11035ft 280kts
11-May-18 21:04 39.583343 -104.663620 4 10328ft 291kts
11-May-18 21:05 39.662304 -104.662633 6 8644ft 269kts
11-May-18 21:06 39.710965 -104.662018 3 7773ft 228kts
11-May-18 21:07 39.767488 -104.661329 4 6632ft 185kts
11-May-18 21:08 39.814769 -104.660510 5 5765ft 164kts
11-May-18 21:09 39.851111 -104.660277 358 5440ft 55kts
11-May-18 21:10 39.856702 -104.661794 266 5440ft 7kts
11-May-18 21:11 39.856810 -104.665298 269 5440ft 14kts
11-May-18 21:12 39.856553 -104.670810 268 5440ft 13kts
11-May-18 21:13 39.854455 -104.672277 185 5440ft 3kts
11-May-18 21:14 39.854334 -104.672293 185 5440ft 0kts

Navigation Log

Ident Type
1. KASE Airport
2. LINDZ Fix
3. DBL Navaid
4. JNETT Fix
5. KDEN Airport